createdAt,value
2022-12-20T00:51:03.806Z,9
2022-12-20T01:37:49.526Z,8.7
2022-12-20T02:11:02.290Z,8.8
2022-12-20T02:16:58.247Z,8.8
2022-12-20T02:29:09.610Z,8.8
2022-12-20T02:53:46.567Z,8.8
2022-12-20T02:59:42.603Z,9.2
2022-12-20T03:19:08.576Z,9
2022-12-20T03:43:58.685Z,9.1
2022-12-20T03:50:04.247Z,9.2
2022-12-20T04:09:33.482Z,9.3
2022-12-20T04:15:23.919Z,9.3
2022-12-20T04:21:19.281Z,9.3
2022-12-20T04:27:09.834Z,9.4
2022-12-20T04:33:03.828Z,9.4
2022-12-20T04:38:54.403Z,9.4
2022-12-20T04:44:46.230Z,9.4
2022-12-20T04:50:38.279Z,9.4
2022-12-20T04:56:30.000Z,9.4
2022-12-20T05:02:20.932Z,9.4
2022-12-20T05:08:12.802Z,9.4
2022-12-20T05:14:04.441Z,9.4
2022-12-20T05:19:57.162Z,9.5
2022-12-20T05:25:53.684Z,9.4
2022-12-20T05:31:44.329Z,9.3
2022-12-20T05:37:36.060Z,9.6
2022-12-20T05:43:27.511Z,9.6
2022-12-20T05:49:18.666Z,9.6
2022-12-20T05:55:08.089Z,9.5
2022-12-20T06:00:58.023Z,9.4
2022-12-20T06:06:47.390Z,9.4
2022-12-20T06:12:37.144Z,9.3
2022-12-20T06:18:26.957Z,9.3
2022-12-20T06:24:19.196Z,9.4
2022-12-20T06:30:09.889Z,9.4
2022-12-20T06:36:00.577Z,9.5
2022-12-20T06:41:52.259Z,9.5
2022-12-20T06:47:43.051Z,9.5
2022-12-20T06:53:34.831Z,9.4
2022-12-20T06:59:25.680Z,9.3
2022-12-20T07:05:18.093Z,9.5
2022-12-20T07:11:09.483Z,9.5
2022-12-20T07:17:00.627Z,9.8
2022-12-20T07:22:53.290Z,9.7
2022-12-20T07:28:45.056Z,9.8
2022-12-20T07:34:36.839Z,9.7
2022-12-20T07:40:30.050Z,9.7
2022-12-20T07:46:22.254Z,9.7
2022-12-20T07:52:19.141Z,9.6
2022-12-20T07:58:09.620Z,9.6
2022-12-20T08:04:01.044Z,9.8
2022-12-20T08:09:52.981Z,9.8
2022-12-20T08:15:43.940Z,9.9
2022-12-20T08:21:35.429Z,10
2022-12-20T08:27:27.255Z,9.9
2022-12-20T08:33:19.244Z,10
2022-12-20T08:39:13.264Z,10
2022-12-20T08:45:05.529Z,10.2
2022-12-20T08:50:55.948Z,10.3
2022-12-20T08:56:46.864Z,10.5
2022-12-20T09:02:37.257Z,10.4
2022-12-20T09:08:28.133Z,10.4
2022-12-20T09:14:19.046Z,10.3
2022-12-20T09:20:10.571Z,10.4
2022-12-20T09:26:01.509Z,10.4
2022-12-20T09:31:54.782Z,10.4
2022-12-20T09:37:46.491Z,10.4
2022-12-20T09:43:37.597Z,10.4
2022-12-20T09:49:29.322Z,10.4
2022-12-20T09:55:20.816Z,10.5
2022-12-20T10:01:15.132Z,10.5
2022-12-20T10:07:23.897Z,10.7
2022-12-20T10:13:16.113Z,10.6
2022-12-20T10:19:07.463Z,10.7
2022-12-20T10:24:59.154Z,10.8
2022-12-20T10:30:50.335Z,10.8
2022-12-20T10:36:42.858Z,10.9
2022-12-20T10:42:33.995Z,10.9
2022-12-20T10:48:25.107Z,11
2022-12-20T10:54:16.541Z,11.2
2022-12-20T11:00:08.620Z,11.2
2022-12-20T11:06:00.877Z,11.3
2022-12-20T11:11:52.602Z,11.4
2022-12-20T11:17:44.340Z,11.5
2022-12-20T11:23:36.511Z,11.5
2022-12-20T11:29:29.363Z,11.5
2022-12-20T11:35:25.307Z,11.6
2022-12-20T11:41:17.407Z,11.6
2022-12-20T11:47:09.037Z,11.5
2022-12-20T11:52:59.961Z,11.6
2022-12-20T11:58:51.115Z,11.6
2022-12-20T12:04:41.548Z,11.6
2022-12-20T12:10:32.573Z,11.6
2022-12-20T12:17:32.793Z,11.6
2022-12-20T12:23:24.108Z,11.7
2022-12-20T12:29:15.598Z,11.7
2022-12-20T12:35:12.084Z,11.8
2022-12-20T12:41:03.596Z,12
2022-12-20T12:46:56.750Z,12.1
2022-12-20T13:05:51.516Z,11.9
2022-12-20T13:11:47.056Z,11.8
2022-12-20T13:24:12.772Z,11.7
2022-12-20T13:30:02.625Z,11.7
2022-12-20T13:35:53.724Z,11.6
2022-12-20T13:41:46.983Z,11.6
2022-12-20T13:47:38.280Z,11.6
2022-12-20T13:53:34.283Z,11.6
2022-12-20T13:59:27.446Z,11.6
2022-12-20T14:05:22.747Z,11.7
2022-12-20T14:11:14.287Z,11.6
2022-12-20T14:17:04.219Z,11.6
2022-12-20T14:23:00.925Z,11.6
2022-12-20T14:28:56.665Z,11.6
2022-12-20T14:34:48.986Z,11.7
2022-12-20T14:40:39.430Z,11.6
2022-12-20T14:46:48.796Z,11.6
2022-12-20T14:52:39.188Z,11.6
2022-12-20T14:58:30.606Z,11.6
2022-12-20T15:04:22.414Z,11.7
2022-12-20T15:10:12.827Z,11.7
2022-12-20T15:16:05.864Z,11.7
2022-12-20T15:21:58.597Z,11.7
2022-12-20T15:27:52.158Z,11.7
2022-12-20T15:33:44.735Z,11.7
2022-12-20T15:39:38.335Z,11.8
2022-12-20T15:45:30.592Z,11.7
2022-12-20T15:51:26.535Z,11.8
2022-12-20T15:57:18.796Z,11.9
2022-12-20T16:03:07.519Z,11.9
2022-12-20T16:08:57.266Z,11.9
2022-12-20T16:14:49.955Z,11.8
2022-12-20T16:20:39.399Z,11.6
2022-12-20T16:26:41.204Z,11.5
2022-12-20T16:32:39.216Z,11.4
2022-12-20T16:38:33.486Z,11.4
2022-12-20T16:44:27.265Z,11.4
2022-12-20T16:50:20.145Z,11.4
2022-12-20T16:56:16.670Z,11.4
2022-12-20T17:02:07.568Z,11.4
2022-12-20T17:07:59.670Z,11.3
2022-12-20T17:14:43.861Z,11.3
2022-12-20T17:20:36.722Z,11.4
2022-12-20T17:26:28.110Z,11.4
2022-12-20T17:32:18.393Z,11.4
2022-12-20T17:38:09.538Z,11.3
2022-12-20T17:43:59.266Z,11.3
2022-12-20T17:49:51.772Z,11.3
2022-12-20T17:55:43.250Z,11.3
2022-12-20T18:01:35.985Z,11.3
2022-12-20T18:07:26.072Z,11.3
2022-12-20T18:13:16.325Z,11.2
2022-12-20T18:19:13.843Z,11.2
2022-12-20T18:25:03.799Z,11.2
2022-12-20T18:30:54.964Z,11.2
2022-12-20T18:36:46.146Z,11.3
2022-12-20T18:42:37.406Z,11.2
2022-12-20T18:48:26.320Z,11.2
2022-12-20T18:54:19.211Z,11.2
2022-12-20T19:00:12.634Z,11.2
2022-12-20T19:06:03.669Z,11.2
2022-12-20T19:11:57.555Z,11.2
2022-12-20T19:17:51.740Z,11.2
2022-12-20T19:23:42.264Z,11.2
2022-12-20T19:29:32.250Z,11.2
2022-12-20T19:35:53.864Z,11.2
2022-12-20T19:42:00.193Z,11.2
2022-12-20T19:48:23.463Z,11.2
2022-12-20T19:54:15.336Z,11.2
2022-12-20T20:00:05.290Z,11.3
2022-12-20T20:05:56.720Z,11.3
2022-12-20T20:11:54.081Z,11.3
2022-12-20T20:17:53.502Z,11.5
2022-12-20T20:23:44.635Z,11.4
2022-12-20T20:29:35.380Z,11.4
2022-12-20T20:35:26.859Z,11.5
2022-12-20T20:41:18.513Z,11.5
2022-12-20T20:47:07.347Z,11.5
2022-12-20T20:52:58.414Z,11.5
2022-12-20T20:58:48.724Z,11.5
2022-12-20T21:12:24.280Z,11.5
2022-12-20T21:18:15.301Z,11.5
2022-12-20T21:24:06.483Z,11.5
2022-12-20T21:29:59.286Z,11.4
2022-12-20T21:35:54.052Z,11.6
2022-12-20T21:41:44.111Z,11.7
2022-12-20T21:47:35.339Z,11.7
2022-12-20T21:53:26.664Z,11.7
2022-12-20T21:59:17.790Z,11.7
2022-12-20T22:05:08.923Z,12
2022-12-20T22:11:00.780Z,11.8
2022-12-20T22:16:51.307Z,12
2022-12-20T22:22:43.228Z,12
2022-12-20T22:28:42.282Z,12.1
2022-12-20T22:34:36.867Z,12.1
2022-12-20T22:40:26.765Z,12.1
2022-12-20T22:46:16.775Z,12
2022-12-20T22:52:08.178Z,11.9
2022-12-20T22:57:58.436Z,11.9
2022-12-20T23:03:49.262Z,11.8
2022-12-20T23:09:43.049Z,11.7
2022-12-20T23:15:35.438Z,11.6
2022-12-20T23:21:28.126Z,11.6
2022-12-20T23:27:20.313Z,11.6
2022-12-20T23:33:10.853Z,11.5
2022-12-20T23:39:01.871Z,11.5
2022-12-20T23:44:52.925Z,11.5
2022-12-20T23:50:44.113Z,11.5
2022-12-20T23:56:35.563Z,11.5
